CSUN New Campus Station -PST Time - Most Recent Data on bottom of page




           Date/Time      Avg      Avg      Max     Wind      Avg      Max      Min      Avg      Avg    Total      Avg     Batt
                         Wind     Wind     Wind      Dir     Temp     Temp     Temp       RH      Bar     Rain    Solar     Volt
                      Spd MPH      Dir  Spd MPH   at Max    Deg_F    Deg_F    Deg_F        % Press_mb   Inches     W/m2      Min
--------------------------------------------------------------------------------------------------------------------------------
    02/25/2015 00:00      1.5      355      4.3       11     52.8     53.2     52.6       47     1022     0.00        0     13.5
    02/25/2015 00:15      1.9      356      4.0      345     52.9     53.3     52.1       48     1021     0.00        0     13.5
    02/25/2015 00:30      0.7       96      2.8      128     51.2     52.4     49.6       54     1021     0.00        0     13.5
    02/25/2015 00:45      0.4      152      2.7      152     49.8     50.0     49.5       56     1022     0.00        0     13.6
    02/25/2015 01:00      0.1       49      1.1       61     49.4     49.7     49.1       57     1021     0.00        0     13.6
    02/25/2015 01:15      0.1      243      1.4      243     48.4     49.5     47.9       60     1021     0.00        0     13.6
    02/25/2015 01:30      0.0       66      0.8       57     48.4     48.9     47.9       60     1022     0.00        0     13.6
    02/25/2015 01:45      0.2      251      1.2      250     47.6     48.5     46.9       64     1022     0.00        0     13.6
    02/25/2015 02:00      0.0      252      0.5      252     46.8     47.1     46.5       64     1022     0.00        0     13.6
    02/25/2015 02:15      0.0        0      0.0      250     47.0     47.3     46.6       65     1022     0.00        0     13.6
    02/25/2015 02:30      0.6      347      2.7      353     46.9     47.4     46.6       64     1021     0.00        0     13.6
    02/25/2015 02:45      0.9      348      2.1      337     47.6     47.8     47.3       61     1021     0.00        0     13.6
    02/25/2015 03:00      0.2       18      1.8       -1     47.1     47.8     46.8       62     1021     0.00        0     13.6
    02/25/2015 03:15      0.0       32      1.1       20     46.6     47.3     45.9       64     1021     0.00        0     13.6
    02/25/2015 03:30      0.9      352      2.6        0     46.4     47.1     45.7       60     1021     0.00        0     13.6
    02/25/2015 03:45      0.8      354      2.8        6     46.3     47.2     45.7       61     1021     0.00        0     13.6
    02/25/2015 04:00      0.3      343      3.1      345     46.5     46.9     45.7       62     1021     0.00        0     13.6
    02/25/2015 04:15      0.5      133      3.0      142     44.9     45.9     44.4       66     1021     0.00        0     13.6
    02/25/2015 04:30      0.3       50      1.7      349     44.4     44.8     44.1       66     1021     0.00        0     13.7
    02/25/2015 04:45      0.2      326      1.8      349     44.2     44.8     43.7       68     1021     0.00        0     13.7
    02/25/2015 05:00      0.1      336      1.3      338     43.6     43.8     43.4       70     1021     0.00        0     13.7
    02/25/2015 05:15      0.2      347      1.4      349     43.5     43.7     43.2       69     1020     0.00        0     13.7
    02/25/2015 05:30      0.1      358      1.2      354     43.1     43.8     42.6       70     1020     0.00        0     13.7
    02/25/2015 05:45      0.0       24      1.5       25     43.2     43.6     42.4       70     1020     0.00        0     13.7
    02/25/2015 06:00      0.1      342      1.4      337     42.7     43.2     42.2       68     1020     0.00        0     13.7
    02/25/2015 06:15      0.0        0      0.0      343     42.7     43.3     42.0       71     1020     0.00        0     13.7
    02/25/2015 06:30      0.0        0      0.0      101     42.2     42.4     42.0       72     1020     0.00        2     13.7
    02/25/2015 06:45      0.0        0      0.0       48     42.4     42.8     42.1       70     1020     0.00       10     13.7
    02/25/2015 07:00      0.0        0      0.0       51     42.5     42.9     42.2       72     1020     0.00       16     13.7
    02/25/2015 07:15      0.0      335      1.0      337     43.8     45.6     42.3       66     1020     0.00       84     13.7
    02/25/2015 07:30      0.0        0      0.0      314     47.2     48.5     45.4       59     1020     0.00      139     13.6
    02/25/2015 07:45      0.0        0      0.0      354     50.0     52.5     48.3       51     1021     0.00      187     13.6
    02/25/2015 08:00      0.0      302      1.2      304     52.7     53.7     52.3       48     1021     0.00      236     13.5
    02/25/2015 08:15      0.0        0      0.0      320     55.3     57.0     53.5       39     1021     0.00      286     13.5
    02/25/2015 08:30      0.6      178      2.2      185     56.4     57.0     55.8       39     1021     0.00      335     13.4
    02/25/2015 08:45      0.3      174      1.7      142     57.1     58.5     56.3       36     1021     0.00      384     13.4
    02/25/2015 09:00      0.2      239      1.4      241     59.4     59.9     58.4       35     1021     0.00      430     13.3
    02/25/2015 09:15      0.3      194      2.1      145     60.9     61.8     59.5       32     1021     0.00      475     13.3
    02/25/2015 09:30      1.3      166      3.8      182     61.4     61.9     60.7       33     1021     0.00      517     13.3
    02/25/2015 09:45      1.5      193      4.3      197     62.0     62.6     61.3       29     1020     0.00      557     13.3
    02/25/2015 10:00      1.5      177      4.2      172     62.9     64.3     61.9       27     1020     0.00      593     13.3
    02/25/2015 10:15      2.4      182      5.0      189     63.6     64.5     63.2       27     1020     0.00      626     13.2
    02/25/2015 10:30      2.2      196      5.4      158     64.6     65.3     63.4       27     1020     0.00      652     13.2
    02/25/2015 10:45      1.4      235      4.9      317     65.5     66.7     64.6       25     1020     0.00      674     13.2
    02/25/2015 11:00      2.0      197      5.2      187     66.5     67.0     65.9       24     1019     0.00      700     13.2
    02/25/2015 11:15      3.2      163      6.2      139     67.0     67.9     66.4       24     1019     0.00      716     13.2
    02/25/2015 11:30      2.1      158      5.1      141     68.1     69.6     66.7       21     1019     0.00      733     13.2
    02/25/2015 11:45      2.9      168      6.8      155     69.4     70.1     68.5       23     1019     0.00      744     13.2
    02/25/2015 12:00      1.6       90      5.6      133     69.4     70.2     68.5       22     1018     0.00      746     13.1
    02/25/2015 12:15      2.6      155      6.4      126     69.8     70.4     69.4       21     1018     0.00      749     13.1
    02/25/2015 12:30      1.6      303      4.6      343     70.2     70.9     69.8       21     1018     0.00      746     13.1
    02/25/2015 12:45      2.6      116      6.0       88     70.7     71.4     70.1       21     1018     0.00      743     13.1
    02/25/2015 13:00      2.3      140      6.5      137     71.1     71.9     70.3       18     1017     0.00      742     13.1
    02/25/2015 13:15      1.8      135      6.3      116     71.5     72.6     70.9       18     1017     0.00      700     13.1
    02/25/2015 13:30      2.2      119      6.8       92     71.9     73.1     71.0       18     1017     0.00      695     13.1
    02/25/2015 13:45      1.9      133      5.2      163     73.0     73.6     72.5       19     1017     0.00      669     13.1
    02/25/2015 14:00      3.1      124      9.2       93     73.2     73.7     72.3       22     1016     0.00      639     13.1
    02/25/2015 14:15      3.5      119      8.8      106     72.4     73.5     71.7       24     1016     0.00      607     13.1
    02/25/2015 14:30      3.3      110      7.8       85     72.4     73.7     71.9       24     1016     0.00      572     13.1
    02/25/2015 14:45      2.9      129     10.3      158     72.7     73.2     72.2       28     1016     0.00      536     13.1
    02/25/2015 15:00      3.6      139      7.5      141     72.3     72.8     71.6       30     1016     0.00      493     13.1
    02/25/2015 15:15      5.0      151      8.9      129     71.6     71.9     71.0       34     1016     0.00      452     13.1
    02/25/2015 15:30      4.4      148     11.6      146     71.5     72.0     70.9       32     1015     0.00      407     13.1
    02/25/2015 15:45      3.5      147      7.4      171     71.8     72.4     71.2       33     1015     0.00      361     13.1
    02/25/2015 16:00      3.6      128      6.2      141     71.2     71.6     70.8       32     1015     0.00      314     13.1
    02/25/2015 16:15      4.3      142      7.5      170     70.6     71.1     70.0       34     1015     0.00      208     13.1
    02/25/2015 16:30      2.9      123      5.9      136     69.7     70.0     69.3       34     1015     0.00       52     13.1
    02/25/2015 16:45      2.9      122      9.7      140     69.4     69.8     69.2       35     1015     0.00       45     13.2
    02/25/2015 17:00      2.4      121      5.3       98     69.2     69.5     68.9       35     1015     0.00       41     13.2
    02/25/2015 17:15      3.2      133      7.0      172     68.4     69.3     67.9       36     1015     0.00       28     13.3
    02/25/2015 17:30      1.8      116      6.0       99     67.8     68.2     67.1       39     1015     0.00       18     13.3
    02/25/2015 17:45      3.8      159      6.9      143     66.3     67.4     65.3       41     1015     0.00       10     13.3
    02/25/2015 18:00      2.5      146      7.0      149     65.4     65.6     65.0       41     1015     0.00        3     13.3
    02/25/2015 18:15      2.6      252      7.5      257     64.2     65.1     63.2       45     1015     0.00        0     13.3
    02/25/2015 18:30      2.9      275      6.0      298     62.6     63.3     62.1       47     1015     0.00        0     13.3
    02/25/2015 18:45      1.5      297      4.4      280     61.5     62.2     61.0       49     1015     0.00        0     13.3
    02/25/2015 19:00      0.7      242      3.4      200     60.7     61.3     60.1       51     1015     0.00        0     13.4
    02/25/2015 19:15      0.1      351      1.4      353     60.0     60.3     59.8       51     1015     0.00        0     13.4
    02/25/2015 19:30      0.0        0      0.0      311     59.5     60.3     58.8       53     1015     0.00        0     13.4
    02/25/2015 19:45      0.0      312      0.7      324     58.7     58.9     58.3       55     1015     0.00        0     13.4
    02/25/2015 20:00      0.4       41      3.7       32     57.9     58.4     57.2       57     1016     0.00        0     13.4
    02/25/2015 20:15      0.7       18      3.7       29     58.1     58.8     57.3       57     1016     0.00        0     13.4
    02/25/2015 20:30      0.1      344      1.1      343     56.6     57.5     56.0       60     1016     0.00        0     13.4
    02/25/2015 20:45      0.0        0      0.0      150     55.8     56.2     55.4       62     1016     0.00        0     13.5
    02/25/2015 21:00      0.7       32      2.6       42     56.3     56.9     55.6       59     1016     0.00        0     13.5
    02/25/2015 21:15      0.1      351      1.8      346     56.2     56.9     55.5       62     1016     0.00        0     13.5
    02/25/2015 21:30      1.0       57      2.5       60     55.7     56.1     55.4       60     1016     0.00        0     13.5
    02/25/2015 21:45      1.3       37      3.4       32     56.3     56.7     55.9       58     1016     0.00        0     13.5
    02/25/2015 22:00      0.0        0      0.0       40     54.8     56.5     53.8       64     1016     0.00        0     13.5
    02/25/2015 22:15      0.0        0      0.0       97     53.9     54.1     53.6       65     1016     0.00        0     13.5
    02/25/2015 22:30      0.3      355      2.0      351     54.0     54.5     53.0       65     1016     0.00        0     13.5
    02/25/2015 22:45      0.5       50      3.1       34     52.6     53.2     52.3       67     1016     0.00        0     13.5
    02/25/2015 23:00      1.1       34      3.2       30     53.9     54.3     53.0       65     1016     0.00        0     13.5
    02/25/2015 23:15      0.2        4      1.8      351     52.4     53.4     51.5       70     1016     0.00        0     13.5
    02/25/2015 23:30      1.6      317      4.2      257     51.9     52.5     51.1       70     1015     0.00        0     13.5
    02/25/2015 23:45      0.4      255      3.1      275     51.0     51.2     50.6       71     1015     0.00        0     13.5
    02/26/2015 00:00      0.2      342      2.0      343     50.6     51.0     50.4       72     1015     0.00        0     13.5
    02/26/2015 00:15      0.3      325      2.1      342     51.0     51.3     50.5       71     1015     0.00        0     13.6
    02/26/2015 00:30      0.7      336      1.9      346     50.5     50.8     50.2       72     1015     0.00        0     13.6
    02/26/2015 00:45      0.1      346      1.1      351     50.2     50.9     49.3       73     1015     0.00        0     13.6
    02/26/2015 01:00      0.4      171      3.2      184     49.2     49.5     48.9       75     1015     0.00        0     13.6
    02/26/2015 01:15      0.0        0      0.0      139     48.8     49.1     48.6       77     1014     0.00        0     13.6
    02/26/2015 01:30      0.5      345      1.7      341     48.6     49.0     48.2       78     1014     0.00        0     13.6
    02/26/2015 01:45      0.4      348      2.0      346     49.0     49.2     48.7       76     1014     0.00        0     13.6
    02/26/2015 02:00      0.6        9      3.2       14     49.2     49.4     49.0       75     1015     0.00        0     13.6
    02/26/2015 02:15      0.1      166      0.9      166     48.3     49.1     47.6       78     1014     0.00        0     13.6
    02/26/2015 02:30      0.8      339      2.5      333     48.1     48.6     47.6       78     1014     0.00        0     13.6
    02/26/2015 02:45      0.0        0      0.0        0     47.7     48.5     47.1       78     1014     0.00        0     13.6
    02/26/2015 03:00      0.1      309      1.0      345     46.9     47.3     46.5       81     1014     0.00        0     13.6
    02/26/2015 03:15      0.0        0      0.0      339     47.0     47.4     46.6       79     1013     0.00        0     13.6
    02/26/2015 03:30      0.2       60      1.8        3     46.9     47.1     46.4       79     1013     0.00        0     13.6
    02/26/2015 03:45      0.7      148      2.8      171     46.3     46.6     46.0       81     1013     0.00        0     13.6
    02/26/2015 04:00      0.7      349      2.4      354     46.5     46.9     46.2       80     1013     0.00        0     13.6
    02/26/2015 04:15      0.0       73      0.7       74     46.2     46.8     45.9       80     1013     0.00        0     13.6
    02/26/2015 04:30      0.1      324      1.3      328     45.7     46.2     45.3       80     1013     0.00        0     13.6
    02/26/2015 04:45      1.0      352      3.5      352     45.8     46.6     45.4       78     1012     0.00        0     13.6
    02/26/2015 05:00      1.0      338      2.4      353     46.5     46.7     46.3       75     1012     0.00        0     13.6
    02/26/2015 05:15      1.5      347      3.6        6     46.9     47.1     46.4       74     1013     0.00        0     13.6
    02/26/2015 05:30      0.1      329      1.4      342     46.8     47.3     46.1       74     1013     0.00        0     13.6
    02/26/2015 05:45      1.1      152      2.8      144     45.5     46.3     45.0       78     1013     0.00        0     13.6
    02/26/2015 06:00      0.0      104      1.1       93     45.1     45.3     44.8       79     1013     0.00        0     13.6
    02/26/2015 06:15      0.1      286      1.4      290     44.6     45.0     44.2       80     1013     0.00        0     13.6
    02/26/2015 06:30      0.5      323      1.8      350     44.6     45.2     44.1       82     1013     0.00        3     13.7
    02/26/2015 06:45      0.2      324      1.3      306     45.1     45.4     44.9       80     1013     0.00       15     13.6
    02/26/2015 07:00      0.2      342      1.1      342     45.4     45.7     44.9       80     1013     0.00       22     13.6
    02/26/2015 07:15      0.0        0      0.0        0     45.8     47.4     45.1       80     1013     0.00       80     13.6
    02/26/2015 07:30      0.2       52      1.5       37     48.8     50.5     47.3       73     1013     0.00      138     13.6
    02/26/2015 07:45      0.0        0      0.0       80     51.8     53.3     50.3       67     1013     0.00      184     13.6
    02/26/2015 08:00      0.0        0      0.0      254     54.3     55.5     53.3       60     1013     0.00      228     13.5
    02/26/2015 08:15      0.1      134      1.4      173     57.1     58.4     55.5       54     1013     0.00      278     13.4
    02/26/2015 08:30      0.9      172      2.2      185     57.5     58.2     57.1       54     1013     0.00      329     13.4
    02/26/2015 08:45      0.9      156      3.4      175     58.4     59.0     57.5       49     1013     0.00      389     13.4
    02/26/2015 09:00      1.7      183      4.6      145     59.1     59.8     58.5       47     1013     0.00      409     13.3
    02/26/2015 09:15      0.9      144      3.0      170     59.6     60.5     59.1       46     1013     0.00      404     13.3
    02/26/2015 09:30      1.1      170      3.7      168     60.4     60.8     59.6       48     1013     0.00      271     13.3
    02/26/2015 09:45      1.7      163      3.9      152     59.8     60.3     59.5       47     1013     0.00      296     13.3
    02/26/2015 10:00      1.6      170      4.4      141     60.1     60.6     59.8       45     1013     0.00      318     13.3
    02/26/2015 10:15      0.8      147      3.4      175     60.5     61.1     60.0       46     1013     0.00      342     13.3
    02/26/2015 10:30      0.7      158      2.5      169     61.9     62.4     60.9       44     1013     0.00      422     13.3
    02/26/2015 10:45      1.6      153      4.1      139     61.4     62.1     61.0       45     1013     0.00      286     13.3
    02/26/2015 11:00      1.4      165      4.8      161     61.4     61.9     61.0       43     1012     0.00      274     13.3
    02/26/2015 11:15      1.4      173      4.2      179     62.4     63.6     61.8       40     1012     0.00      407     13.3
    02/26/2015 11:30      2.1      199      5.7      213     63.7     64.3     63.1       40     1012     0.00      508     13.3
    02/26/2015 11:45      1.4      115      3.8       29     64.7     65.2     64.2       35     1012     0.00      564     13.3
    02/26/2015 12:00      1.4       86      3.8      204     65.1     65.9     64.5       36     1011     0.00      677     13.2
    02/26/2015 12:15      1.6       49      5.5       77     66.6     66.9     66.0       34     1011     0.00      683     13.2
    02/26/2015 12:30      2.7      136      6.2      136     66.7     67.3     66.3       34     1011     0.00      718     13.2
    02/26/2015 12:45      2.8      118      6.6       96     68.1     68.8     66.9       36     1011     0.00      729     13.2
    02/26/2015 13:00      2.9      108      6.5      171     68.0     68.8     67.3       36     1010     0.00      713     13.2
    02/26/2015 13:15      4.1      114      7.4       58     68.3     68.7     67.8       39     1010     0.00      691     13.2
    02/26/2015 13:30      2.6      127      6.8      156     69.3     70.1     68.5       36     1010     0.00      661     13.1
    02/26/2015 13:45      2.4       96      6.0      129     68.7     69.3     67.9       36     1010     0.00      650     13.1
    02/26/2015 14:00      4.3       99      8.6       79     69.1     69.6     68.3       41     1009     0.00      590     13.1
    02/26/2015 14:15      3.8      114      8.9       80     69.3     70.3     68.5       39     1009     0.00      588     13.1
    02/26/2015 14:30      4.0      106      7.8       85     69.6     70.6     68.6       41     1009     0.00      492     13.1
    02/26/2015 14:45      4.1      123      8.1      132     69.8     70.3     68.8       41     1009     0.00      533     13.1
    02/26/2015 15:00      3.4      125      9.5      122     69.7     70.3     69.4       41     1009     0.00      426     13.1
    02/26/2015 15:15      4.0      129      9.6      132     69.3     69.9     68.6       42     1009     0.00      389     13.1
    02/26/2015 15:30      3.7      107      8.6      162     68.5     68.9     68.0       41     1009     0.00      374     13.1
    02/26/2015 15:45      3.0      114      8.0       95     68.4     69.0     67.9       45     1009     0.00      334     13.1
    02/26/2015 16:00      3.3      117      8.6       85     68.5     69.2     67.9       43     1009     0.00      371     13.1
    02/26/2015 16:15      4.0       96      9.0       68     68.3     68.8     67.7       41     1009     0.00      293     13.1
    02/26/2015 16:30      4.3       99     10.7       83     67.1     67.7     66.4       42     1009     0.00      101     13.2
    02/26/2015 16:45      3.8      113      9.0      103     66.1     66.8     65.3       44     1009     0.00       59     13.2
    02/26/2015 17:00      2.9      114      7.1      106     65.2     65.6     64.5       43     1009     0.00       43     13.2
    02/26/2015 17:15      3.5      118      6.6      106     64.1     64.7     63.6       44     1009     0.00       32     13.3
    02/26/2015 17:30      2.0      132      5.1      143     63.1     63.7     62.8       45     1009     0.00       19     13.3
    02/26/2015 17:45      1.0      104      3.5       93     62.6     62.9     62.3       43     1009     0.00        7     13.3
    02/26/2015 18:00      1.5       74      3.8      106     62.2     62.5     61.9       43     1009     0.00        2     13.3
    02/26/2015 18:15      1.1       63      3.2       54     61.8     62.2     61.4       43     1009     0.00        0     13.3
    02/26/2015 18:30      1.0       62      3.0       49     61.3     61.6     61.0       43     1010     0.00        0     13.4
    02/26/2015 18:45      0.2       72      2.4       59     60.7     61.1     60.3       44     1010     0.00        0     13.4
    02/26/2015 19:00      0.0       70      0.7       83     59.8     60.5     59.0       47     1010     0.00        0     13.4
    02/26/2015 19:15      0.0      225      0.3      213     58.3     59.1     57.7       50     1010     0.00        0     13.4
    02/26/2015 19:30      0.2      325      1.7      324     57.8     58.0     57.5       51     1010     0.00        0     13.4
    02/26/2015 19:45      0.7       29      3.9        6     57.8     58.4     57.4       49     1010     0.00        0     13.4
    02/26/2015 20:00      0.8       57      2.9      350     58.0     58.7     56.9       52     1010     0.00        0     13.4
    02/26/2015 20:15      0.0      172      1.1      194     56.5     57.0     56.1       53     1010     0.00        0     13.4
    02/26/2015 20:30      0.9      233      4.4      188     56.0     56.6     55.5       53     1009     0.00        0     13.4
    02/26/2015 20:45      2.1      135      4.4      121     57.3     57.9     56.2       52     1010     0.00        0     13.5
    02/26/2015 21:00      2.0      249      4.5       92     57.3     58.1     56.6       55     1009     0.00        0     13.4
    02/26/2015 21:15      2.0      246      5.1      290     57.5     58.0     56.7       58     1010     0.00        0     13.4
    02/26/2015 21:30      1.6      246      5.5      336     57.7     57.9     57.3       56     1010     0.00        0     13.4
    02/26/2015 21:45      2.0      315      7.1      248     58.1     58.6     57.7       57     1009     0.00        0     13.4
    02/26/2015 22:00      1.7      269      5.3      244     57.4     58.4     56.8       62     1009     0.00        0     13.4
    02/26/2015 22:15      1.3      268      4.2      271     56.8     57.2     56.4       64     1009     0.00        0     13.4
    02/26/2015 22:30      1.1      283      3.6      344     56.5     57.1     56.0       59     1009     0.00        0     13.5
    02/26/2015 22:45      1.5      252      5.3      261     57.5     58.4     56.9       53     1009     0.00        0     13.5
    02/26/2015 23:00      0.5      227      4.0      179     57.4     58.4     56.6       55     1009     0.00        0     13.5
    02/26/2015 23:15      2.0      174      5.2      189     56.8     57.2     56.5       57     1009     0.00        0     13.5
    02/26/2015 23:30      1.2      160      6.5      229     56.4     56.8     56.1       58     1009     0.00        0     13.5
    02/26/2015 23:45      0.9      255      5.0      234     55.1     56.3     54.6       64     1009     0.00        0     13.5
    02/27/2015 00:00      2.4      248      8.6      196     54.7     55.4     54.1       65     1009     0.00        0     13.5
    02/27/2015 00:15      1.2      289      4.6      301     55.4     55.9     54.4       62     1009     0.00        0     13.5
    02/27/2015 00:30      1.4      282      4.4      284     54.7     55.7     54.0       67     1009     0.00        0     13.5
    02/27/2015 00:45      0.9      278      3.7      289     53.0     54.0     52.3       70     1009     0.00        0     13.5
    02/27/2015 01:00      1.8      250      7.6      271     52.7     53.9     52.3       67     1009     0.00        0     13.5
    02/27/2015 01:15      1.3      240      5.3      238     53.6     53.9     53.3       67     1009     0.00        0     13.5
    02/27/2015 01:30      1.0       90      3.9       80     53.1     53.5     52.7       70     1009     0.00        0     13.5
    02/27/2015 01:45      2.0       68      5.3       43     52.8     53.0     52.5       74     1009     0.00        0     13.5
    02/27/2015 02:00      2.0       63      4.7       65     52.6     52.9     52.3       79     1009     0.00        0     13.5
    02/27/2015 02:15      1.8       53      3.8       50     52.4     52.7     52.1       82     1009     0.00        0     13.5
    02/27/2015 02:30      2.4       30      5.4       35     52.3     52.5     52.1       84     1009     0.00        0     13.5
    02/27/2015 02:45      2.2       33      4.6       36     52.2     52.4     52.0       86     1009     0.00        0     13.5
    02/27/2015 03:00      1.9       49      4.7       37     52.3     52.6     52.1       86     1009     0.00        0     13.5
    02/27/2015 03:15      0.4      337      1.8      345     52.1     52.4     51.8       87     1009     0.00        0     13.5
    02/27/2015 03:30      1.0       25      2.9       60     52.3     52.6     51.9       87     1008     0.00        0     13.5
    02/27/2015 03:45      0.7       26      3.1       43     52.6     52.9     52.4       87     1008     0.00        0     13.5
    02/27/2015 04:00      1.7       40      4.6       48     53.1     53.3     52.7       86     1008     0.00        0     13.5
    02/27/2015 04:15      0.9       72      2.7       34     53.2     53.4     53.0       86     1008     0.00        0     13.5
    02/27/2015 04:30      0.8       57      2.8       16     53.4     53.5     53.2       86     1009     0.00        0     13.5
    02/27/2015 04:45      1.2       65      3.2       81     53.5     53.7     53.3       85     1009     0.00        0     13.5
    02/27/2015 05:00      1.2       67      3.4       47     53.5     53.7     53.3       85     1009     0.00        0     13.5
    02/27/2015 05:15      0.6       80      3.0       71     53.2     53.5     52.9       85     1009     0.00        0     13.5
    02/27/2015 05:30      0.3       79      2.4       84     53.0     53.2     52.7       85     1009     0.00        0     13.5
    02/27/2015 05:45      1.2       53      3.3       54     53.0     53.2     52.8       85     1009     0.00        0     13.5
    02/27/2015 06:00      0.6      104      2.6      162     52.9     53.1     52.5       85     1009     0.00        0     13.5
    02/27/2015 06:15      0.5      154      2.0      153     52.2     52.7     51.8       86     1009     0.00        0     13.5
    02/27/2015 06:30      0.8      151      1.7      151     51.6     52.0     51.3       86     1009     0.00        2     13.5
    02/27/2015 06:45      0.0      154      0.8      158     51.4     51.6     51.3       86     1009     0.00        6     13.5
    02/27/2015 07:00      0.0        0      0.0      270     51.7     52.1     51.4       85     1009     0.00       13     13.5
    02/27/2015 07:15      0.0        0      0.0      312     52.3     52.8     51.9       84     1009     0.00       26     13.5
    02/27/2015 07:30      0.2      161      0.9      170     52.9     53.2     52.5       83     1009     0.00       35     13.5
    02/27/2015 07:45      0.5       95      3.0      103     53.4     53.7     53.0       79     1009     0.00       49     13.5
    02/27/2015 08:00      1.4      100      3.8       53     54.0     54.4     53.5       77     1009     0.00       55     13.5
    02/27/2015 08:15      1.4       93      4.1       78     54.5     54.7     54.3       76     1009     0.00       68     13.4
    02/27/2015 08:30      1.7       85      3.9       42     54.9     55.4     54.6       76     1009     0.00       84     13.4
    02/27/2015 08:45      1.7       95      4.7       83     55.2     55.6     54.9       76     1010     0.00      110     13.4
    02/27/2015 09:00      1.3       66      3.6       79     55.6     56.1     55.3       73     1010     0.00      151     13.4
    02/27/2015 09:15      2.2       82      4.0       96     55.9     56.1     55.7       72     1010     0.00      160     13.4
    02/27/2015 09:30      1.8      105      5.1       82     56.3     56.6     56.0       71     1010     0.00      152     13.4
    02/27/2015 09:45      2.1      101      6.5      101     56.8     57.2     56.4       70     1010     0.00      171     13.4
    02/27/2015 10:00      1.3      110      5.1       65     57.1     57.5     56.8       69     1010     0.00      136     13.4
    02/27/2015 10:15      0.8       93      4.3       81     57.6     57.9     57.4       68     1010     0.00      228     13.4
    02/27/2015 10:30      1.8      170      4.9      178     58.6     59.3     57.8       66     1010     0.00      302     13.3
    02/27/2015 10:45      1.8      160      5.0      162     58.8     59.5     58.3       66     1010     0.00      394     13.3
    02/27/2015 11:00      2.1      153      6.4      155     60.5     61.4     59.6       62     1010     0.00      587     13.3
    02/27/2015 11:15      2.3      131      5.8      167     60.2     60.6     59.7       61     1009     0.00      405     13.3
    02/27/2015 11:30      3.0      124      6.4      157     60.6     61.4     60.0       59     1009     0.00      437     13.3
    02/27/2015 11:45      1.4       81      4.6       93     60.7     61.2     60.3       56     1009     0.00      249     13.3
    02/27/2015 12:00      0.8       77      2.9       21     61.0     61.4     60.7       58     1009     0.00      207     13.3
    02/27/2015 12:15      2.4      130      6.0      150     60.8     61.2     60.1       59     1009     0.00      139     13.3
    02/27/2015 12:30      4.5      146     10.0      192     60.5     61.3     59.9       60     1008     0.00      207     13.3
    02/27/2015 12:45      5.1      151      9.9      163     60.8     61.1     60.4       60     1008     0.00      218     13.3
    02/27/2015 13:00      5.8      152     10.8      168     60.4     60.8     60.1       61     1008     0.00      158     13.3
    02/27/2015 13:15      6.2      156     10.3      176     60.1     60.4     59.7       62     1008     0.00      115     13.3
    02/27/2015 13:30      5.6      159      8.8      163     59.8     60.0     59.6       62     1007     0.00       81     13.3
    02/27/2015 13:45      3.1      137      8.6      168     59.7     59.9     59.5       61     1007     0.00       71     13.3
    02/27/2015 14:00      4.4      151      9.1      170     59.8     60.0     59.5       60     1007     0.00       48     13.3
    02/27/2015 14:15      5.2      170      8.9      144     59.6     59.9     59.4       59     1007     0.00       75     13.4
    02/27/2015 14:30      5.2      156      8.2      167     59.9     60.2     59.6       61     1007     0.00       97     13.4
    02/27/2015 14:45      4.5      171      7.5      148     60.0     60.3     59.8       61     1007     0.00      104     13.3
    02/27/2015 15:00      2.7      180      6.5      187     60.2     60.6     59.9       61     1007     0.00      112     13.3
    02/27/2015 15:15      4.2      175      9.3      194     60.3     60.6     59.8       63     1007     0.00       49     13.3
    02/27/2015 15:30      6.3      188     10.0      186     59.8     60.1     59.5       65     1007     0.00       71     13.3
    02/27/2015 15:45      6.2      185      9.6      213     60.1     60.5     59.9       64     1007     0.00      166     13.3
    02/27/2015 16:00      6.9      191     11.4      187     59.6     60.2     59.0       64     1007     0.00       65     13.3
    02/27/2015 16:15      5.5      193      9.5      179     59.2     59.4     59.0       65     1006     0.00       81     13.3
    02/27/2015 16:30      5.5      187     10.7      203     58.9     59.2     58.5       66     1006     0.00       57     13.4
    02/27/2015 16:45      6.4      186     11.2      165     58.3     58.8     57.8       68     1006     0.00       42     13.4
    02/27/2015 17:00      5.4      193      7.8      204     57.9     58.1     57.7       68     1007     0.00       24     13.4
    02/27/2015 17:15      4.0      187      6.5      192     57.7     58.0     57.5       68     1007     0.00       17     13.4
    02/27/2015 17:30      2.3      163      6.4      200     57.8     58.0     57.5       67     1006     0.00       14     13.4
    02/27/2015 17:45      2.3      147      5.1      153     57.7     57.9     57.5       67     1006     0.00        6     13.4
    02/27/2015 18:00      2.9      158      5.2      202     57.7     57.9     57.5       66     1006     0.00        1     13.4
    02/27/2015 18:15      2.0      145      4.4      157     57.8     58.0     57.6       65     1006     0.00        0     13.4
    02/27/2015 18:30      1.4      130      3.6      131     57.9     58.1     57.6       65     1006     0.00        0     13.4
    02/27/2015 18:45      2.3      161      4.8      178     57.8     57.9     57.5       66     1006     0.00        0     13.4
    02/27/2015 19:00      1.4      118      3.2      119     57.7     58.0     57.4       65     1006     0.00        0     13.4
    02/27/2015 19:15      0.8      134      2.3      142     57.7     57.9     57.4       66     1006     0.00        0     13.4
    02/27/2015 19:30      1.0      153      2.7      154     57.5     57.8     57.2       67     1006     0.00        0     13.4
    02/27/2015 19:45      1.1      136      3.0      151     57.4     57.6     57.2       67     1006     0.00        0     13.4
    02/27/2015 20:00      0.5      109      2.5       85     57.6     57.9     57.4       66     1006     0.00        0     13.4
    02/27/2015 20:15      2.0      106      5.9       93     57.6     57.8     57.4       66     1006     0.00        0     13.4
    02/27/2015 20:30      2.0      102      5.5      101     57.3     57.5     57.0       68     1006     0.00        0     13.4
    02/27/2015 20:45      1.2       84      3.8       59     57.2     57.4     57.0       69     1006     0.00        0     13.4
    02/27/2015 21:00      1.4      105      3.8       72     57.2     57.4     57.0       71     1006     0.00        0     13.4
    02/27/2015 21:15      1.6      125      4.7       83     57.0     57.3     56.6       75     1006     0.00        0     13.4
    02/27/2015 21:30      2.1      100      4.5      103     56.5     56.8     56.3       79     1006     0.00        0     13.4
    02/27/2015 21:45      0.8      141      3.1      131     56.1     56.5     55.6       80     1006     0.00        0     13.4
    02/27/2015 22:00      0.9      106      2.9      124     56.0     56.3     55.7       81     1006     0.00        0     13.4
    02/27/2015 22:15      1.4      137      3.8      130     56.0     56.1     55.8       81     1006     0.00        0     13.4
    02/27/2015 22:30      3.0      189      5.3      192     55.8     56.1     55.5       71     1006     0.00        0     13.4
    02/27/2015 22:45      3.6      183      6.1      176     55.4     55.7     54.9       71     1006     0.00        0     13.4
    02/27/2015 23:00      2.9      175      5.0      187     54.7     55.0     54.4       71     1006     0.00        0     13.4
    02/27/2015 23:15      2.4      147      4.2      144     54.6     54.9     54.4       71     1006     0.00        0     13.4
    02/27/2015 23:30      1.0      157      2.7      133     54.7     54.9     54.5       72     1006     0.00        0     13.4
    02/27/2015 23:45      0.5      192      1.8      191     54.7     54.9     54.5       71     1006     0.00        0     13.4
    02/28/2015 00:00      0.4      182      1.4      187     54.7     54.9     54.5       73     1006     0.00        0     13.4
    02/28/2015 00:15      1.3      240      4.1      257     54.7     55.0     54.4       71     1006     0.00        0     13.4
    02/28/2015 00:30      1.8      267      4.8      257     54.9     55.1     54.7       70     1006     0.00        0     13.4
    02/28/2015 00:45      2.3      267      6.4      268     54.8     55.0     54.5       70     1006     0.00        0     13.4
    02/28/2015 01:00      2.4      265      6.7      248     54.6     54.9     54.4       71     1006     0.00        0     13.4
    02/28/2015 01:15      2.0      270      4.3      252     54.5     54.7     54.3       71     1006     0.00        0     13.5
    02/28/2015 01:30      2.5      276      6.6      256     54.1     54.4     53.8       72     1006     0.00        0     13.4
    02/28/2015 01:45      2.8      267      6.5      243     53.6     53.9     53.4       73     1006     0.00        0     13.5
    02/28/2015 02:00      1.5      269      5.3      251     53.5     53.7     53.2       73     1006     0.00        0     13.5
    02/28/2015 02:15      1.5      265      3.8      252     53.3     53.5     53.1       73     1007     0.00        0     13.5
    02/28/2015 02:30      1.1      225      3.4      250     53.0     53.3     52.8       72     1006     0.00        0     13.5
    02/28/2015 02:45      1.8      229      4.4      218     52.8     53.0     52.5       72     1006     0.00        0     13.5
    02/28/2015 03:00      1.2      220      3.6      214     52.6     52.9     52.3       73     1006     0.00        0     13.5
    02/28/2015 03:15      1.8      250      5.6      246     52.4     52.6     52.2       73     1006     0.00        0     13.5
    02/28/2015 03:30      2.7      263      5.6      252     52.3     52.5     52.1       73     1006     0.00        0     13.5
    02/28/2015 03:45      1.8      267      4.6      243     52.1     52.4     51.8       72     1006     0.00        0     13.5
    02/28/2015 04:00      1.8      285      4.6      281     51.6     52.1     51.2       71     1006     0.00        0     13.5
    02/28/2015 04:15      1.0      241      3.2      255     51.0     51.5     50.6       72     1006     0.00        0     13.5
    02/28/2015 04:30      0.8      235      2.7      257     50.7     51.0     50.4       73     1006     0.00        0     13.5
    02/28/2015 04:45      0.1      277      1.3      259     50.5     50.7     50.2       73     1007     0.00        0     13.5
    02/28/2015 05:00      0.1      257      0.9      245     50.3     50.6     49.9       74     1007     0.00        0     13.5
    02/28/2015 05:15      1.1      209      3.0      216     49.5     50.0     49.2       72     1007     0.00        0     13.5
    02/28/2015 05:30      0.2      205      2.2      210     49.5     49.7     49.3       72     1007     0.00        0     13.6
    02/28/2015 05:45      0.1      212      1.4      188     49.3     49.7     49.0       72     1007     0.00        0     13.6
    02/28/2015 06:00      0.0        0      0.0      214     49.1     49.3     48.9       72     1007     0.00        0     13.6
    02/28/2015 06:15      0.0      153      1.2      191     49.0     49.4     48.6       71     1007     0.00        0     13.6
    02/28/2015 06:30      0.0        0      0.0       98     48.2     48.8     47.7       74     1007     0.00        3     13.6
    02/28/2015 06:45      0.1       87      1.0       90     47.4     48.0     46.9       77     1007     0.00        8     13.6
    02/28/2015 07:00      0.1      135      1.1      139     47.7     48.0     47.3       76     1007     0.00       19     13.6
    02/28/2015 07:15      0.6      163      1.9      146     47.5     48.5     47.1       78     1008     0.00       79     13.6
    02/28/2015 07:30      0.5      139      2.1      160     49.8     50.8     48.3       70     1008     0.00       92     13.6
    02/28/2015 07:45      0.7      166      2.6      183     51.5     52.0     50.7       67     1008     0.00      180     13.5
    02/28/2015 08:00      1.2      183      3.4      200     52.7     53.5     51.7       62     1009     0.00      307     13.5
    02/28/2015 08:15      1.4      198      3.9      193     53.8     54.8     52.7       62     1009     0.00      395     13.4
    02/28/2015 08:30      1.1      149      4.2      176     53.9     54.5     53.4       61     1009     0.00      257     13.4
    02/28/2015 08:45      2.0      184      5.1      133     53.7     54.0     53.4       59     1009     0.00      283     13.4
    02/28/2015 09:00      1.1      165      4.5      130     54.1     54.4     53.8       59     1009     0.00      280     13.4
    02/28/2015 09:15      0.9      151      2.7      147     54.2     54.7     53.8       59     1009     0.00      260     13.4
    02/28/2015 09:30      3.6      176      6.8      156     55.4     56.2     54.5       55     1010     0.00      493     13.4
    02/28/2015 09:45      3.4      211      8.4      190     56.2     56.9     55.3       53     1010     0.00      450     13.3
    02/28/2015 10:00      6.4      188     10.1      183     55.4     56.2     54.6       53     1010     0.00      396     13.3
    02/28/2015 10:15      5.1      187      9.5      207     55.8     56.8     55.0       47     1010     0.00      399     13.3
    02/28/2015 10:30      3.3      212     10.4      202     56.7     57.3     56.2       47     1010     0.00      395     13.3
    02/28/2015 10:45      4.8      207     10.2      201     57.2     57.9     56.5       46     1010     0.00      469     13.3
    02/28/2015 11:00      3.5      201      7.1      203     57.9     58.4     57.5       43     1010     0.00      430     13.3
    02/28/2015 11:15      4.3      200      9.0      215     57.6     58.1     56.9       46     1010     0.00      292     13.3
    02/28/2015 11:30      2.9      189      7.1      223     58.3     60.1     56.9       44     1010     0.00      575     13.3
    02/28/2015 11:45      4.4      189      9.6      170     60.4     61.0     59.9       39     1009     0.00      826     13.3
    02/28/2015 12:00      4.6      188     11.4      184     60.3     60.9     59.9       38     1009     0.00      725     13.2
    02/28/2015 12:15      4.6      212     11.6      255     61.6     62.5     60.9       42     1009     0.00      785     13.2
    02/28/2015 12:30      4.1      204      8.8      172     60.1     61.5     59.5       39     1009     0.00      220     13.2
    02/28/2015 12:45      4.0      245      8.8      254     59.4     59.8     58.9       42     1009     0.00      180     13.3
    02/28/2015 13:00      3.9      220      9.6      205     59.3     59.7     59.0       43     1009     0.00      247     13.3
    02/28/2015 13:15      3.3      197      7.4      161     60.9     62.0     59.7       39     1008     0.00      510     13.3
    02/28/2015 13:30      3.7      230      9.7      248     63.1     63.7     61.9       39     1008     0.00      785     13.3
    02/28/2015 13:45      6.7      202     14.4      189     62.8     63.7     60.8       38     1008     0.00      634     13.2
    02/28/2015 14:00      5.0      201     10.5      178     61.9     63.5     60.5       39     1008     0.00      684     13.2
    02/28/2015 14:15      7.4      196     17.0      195     62.3     63.9     60.4       41     1008     0.00      521     13.2
    02/28/2015 14:30      5.7      210     13.1      197     60.0     61.0     59.1       45     1008     0.00      276     13.2
    02/28/2015 14:45      9.4      193     16.3      200     60.6     61.5     59.8       42     1008     0.00      362     13.3
    02/28/2015 15:00      7.5      208     17.4      193     61.0     62.6     60.1       39     1008     0.00      524     13.3
    02/28/2015 15:15      5.9      212     15.8      219     61.7     62.5     60.8       37     1008     0.00      459     13.2